Time;durP1;ratioP1;P1;durP2;ratioP2;P2;SDS_P1;SDS_P2;PMS_P1;PMS_P2;Temp;Humidity;BMP_temperature;BMP_pressure;BME280_temperature;BME280_humidity;BME280_pressure;Samples;Min_cycle;Max_cycle;Signal;HPM_P1;HPM_P2
2023/03/24 00:01:22;;;;;;;3.53;2.95;;;13.40;99.90;;;;;;5013784;28;20044;-54
2023/03/24 00:04:08;;;;;;;6.20;3.35;;;13.30;99.90;;;;;;5012337;28;20113;-57
2023/03/24 00:06:54;;;;;;;7.82;4.15;;;13.30;99.90;;;;;;5011855;28;20034;-56
2023/03/24 00:09:42;;;;;;;8.02;6.13;;;13.30;99.90;;;;;;5006580;28;20034;-53
2023/03/24 00:12:29;;;;;;;5.78;4.13;;;13.40;99.90;;;;;;5013048;28;20398;-52
2023/03/24 00:15:18;;;;;;;17.63;12.20;;;13.40;99.90;;;;;;4999146;28;20026;-53
2023/03/24 00:18:04;;;;;;;7.82;5.78;;;13.40;99.90;;;;;;5013268;28;20029;-55
2023/03/24 00:20:57;;;;;;;5.30;3.05;;;13.40;99.90;;;;;;5011987;28;20084;-54
2023/03/24 00:23:43;;;;;;;4.55;3.30;;;13.40;99.90;;;;;;4998031;28;20037;-51
2023/03/24 00:26:31;;;;;;;3.88;3.10;;;13.40;99.90;;;;;;5011705;28;20036;-55
2023/03/24 00:29:17;;;;;;;3.42;3.08;;;13.40;99.90;;;;;;5012467;28;20069;-52
2023/03/24 00:32:03;;;;;;;4.10;3.67;;;13.40;99.90;;;;;;5011452;28;20034;-55
2023/03/24 00:34:51;;;;;;;4.65;3.80;;;13.40;99.90;;;;;;4997822;28;20034;-57
2023/03/24 00:37:38;;;;;;;5.18;3.53;;;13.40;99.90;;;;;;4992860;28;20042;-51
2023/03/24 00:40:24;;;;;;;3.88;3.15;;;13.40;99.90;;;;;;4995381;28;20034;-53
2023/03/24 00:43:12;;;;;;;5.90;3.95;;;13.40;99.90;;;;;;5012110;28;20029;-53
2023/03/24 00:46:04;;;;;;;4.78;3.30;;;13.40;99.90;;;;;;5011011;28;20034;-56
2023/03/24 00:48:52;;;;;;;4.50;3.50;;;13.40;99.90;;;;;;5012668;28;20033;-55
2023/03/24 00:51:40;;;;;;;5.22;3.40;;;13.30;99.90;;;;;;4998124;28;20061;-57
2023/03/24 00:54:30;;;;;;;4.07;3.55;;;13.30;99.90;;;;;;4996294;28;20111;-52
2023/03/24 00:57:20;;;;;;;4.72;3.78;;;13.30;99.90;;;;;;5001198;28;20034;-52
2023/03/24 01:00:18;;;;;;;5.30;3.92;;;13.30;99.90;;;;;;5011281;28;20045;-54
2023/03/24 01:03:04;;;;;;;4.10;3.45;;;13.30;99.90;;;;;;5010689;28;20062;-55
2023/03/24 01:05:53;;;;;;;5.57;3.95;;;13.30;99.90;;;;;;5011674;28;20057;-56
2023/03/24 01:08:39;;;;;;;6.20;3.83;;;13.30;99.90;;;;;;5011586;28;20041;-56
2023/03/24 01:11:26;;;;;;;6.97;3.58;;;13.30;99.90;;;;;;4988142;28;20371;-55
2023/03/24 01:14:13;;;;;;;5.97;3.78;;;13.30;99.90;;;;;;5002164;28;20118;-54
2023/03/24 01:16:59;;;;;;;6.15;4.00;;;13.30;99.90;;;;;;5009910;28;20058;-54
2023/03/24 01:19:45;;;;;;;6.97;3.63;;;13.20;99.90;;;;;;5012257;28;20045;-54
2023/03/24 01:22:36;;;;;;;4.03;3.53;;;13.10;99.90;;;;;;5011733;28;20490;-55
2023/03/24 01:25:22;;;;;;;6.10;3.85;;;13.10;99.90;;;;;;5011114;28;20041;-55
2023/03/24 01:28:08;;;;;;;3.97;3.47;;;13.20;99.90;;;;;;5011318;28;20402;-52
2023/03/24 01:30:54;;;;;;;4.93;3.97;;;13.20;99.90;;;;;;5011476;28;20038;-54
2023/03/24 01:33:41;;;;;;;5.35;4.07;;;13.20;99.90;;;;;;5003721;28;20037;-53
2023/03/24 01:36:26;;;;;;;5.35;4.13;;;13.20;99.90;;;;;;4997324;28;20065;-52
2023/03/24 01:39:13;;;;;;;5.90;4.40;;;13.20;99.90;;;;;;5011147;28;20034;-55
2023/03/24 01:41:58;;;;;;;6.35;4.10;;;13.20;99.90;;;;;;4992640;28;20035;-53
2023/03/24 01:44:47;;;;;;;4.88;4.38;;;13.20;99.90;;;;;;4994449;28;20549;-53
2023/03/24 01:47:33;;;;;;;7.00;4.70;;;13.10;99.90;;;;;;4977219;28;20022;-52
2023/03/24 01:50:19;;;;;;;4.97;4.47;;;13.10;99.90;;;;;;5007473;28;20060;-57
2023/03/24 01:53:07;;;;;;;6.75;5.20;;;13.20;99.90;;;;;;5011602;28;20030;-54
2023/03/24 01:55:54;;;;;;;7.85;4.70;;;13.20;99.90;;;;;;5010000;28;20038;-54
2023/03/24 01:58:46;;;;;;;7.10;4.70;;;13.10;99.90;;;;;;5010231;28;20033;-53
2023/03/24 02:01:32;;;;;;;6.20;4.82;;;13.10;99.90;;;;;;5008195;28;20065;-53
2023/03/24 02:04:18;;;;;;;5.22;4.70;;;13.10;99.90;;;;;;5009563;28;20053;-50
2023/03/24 02:07:28;;;;;;;5.78;4.70;;;13.10;99.90;;;;;;5015143;28;20487;-50
2023/03/24 02:10:16;;;;;;;7.18;5.07;;;13.20;99.90;;;;;;5015064;28;20506;-49
2023/03/24 02:13:03;;;;;;;6.05;5.45;;;13.10;99.90;;;;;;5008451;28;20096;-53
2023/03/24 02:16:27;;;;;;;6.47;5.05;;;13.10;99.90;;;;;;5013257;28;20028;-50
2023/03/24 02:19:38;;;;;;;6.15;5.28;;;13.20;99.90;;;;;;5013685;28;20110;-52
2023/03/24 02:22:39;;;;;;;7.22;5.40;;;13.10;99.90;;;;;;5014590;28;20022;-53
2023/03/24 02:25:58;;;;;;;6.00;5.32;;;13.20;99.90;;;;;;5015583;28;20053;-54
2023/03/24 02:28:57;;;;;;;5.40;4.90;;;13.20;99.90;;;;;;5014055;28;20022;-50
2023/03/24 02:32:06;;;;;;;8.13;5.65;;;13.10;99.90;;;;;;5015727;28;20064;-55
2023/03/24 02:35:21;;;;;;;6.40;5.35;;;13.10;99.90;;;;;;5013823;28;20049;-54
2023/03/24 02:38:40;;;;;;;6.83;5.93;;;13.10;99.90;;;;;;4940175;28;20413;-54
2023/03/24 02:41:34;;;;;;;7.60;5.90;;;13.10;99.90;;;;;;4995553;28;20066;-55
2023/03/24 02:44:31;;;;;;;8.55;6.28;;;13.00;99.90;;;;;;5003162;28;20026;-57
2023/03/24 02:47:42;;;;;;;7.53;5.80;;;12.90;99.90;;;;;;5013999;28;20030;-56
2023/03/24 02:50:37;;;;;;;7.88;6.28;;;12.90;99.90;;;;;;5013208;28;20025;-57
2023/03/24 02:53:28;;;;;;;10.32;6.72;;;12.90;99.90;;;;;;4999982;28;20125;-56
2023/03/24 02:56:28;;;;;;;9.43;6.10;;;12.90;99.90;;;;;;5014055;28;20503;-60
2023/03/24 02:59:24;;;;;;;9.05;6.07;;;12.90;99.90;;;;;;5013880;28;20508;-57
2023/03/24 03:02:18;;;;;;;9.15;6.60;;;12.80;99.90;;;;;;5014051;28;20022;-56
2023/03/24 03:05:16;;;;;;;10.80;7.15;;;12.70;99.90;;;;;;5013115;28;20406;-55
2023/03/24 03:08:06;;;;;;;7.72;6.35;;;12.80;99.90;;;;;;5014751;28;20018;-55
2023/03/24 03:10:56;;;;;;;7.55;6.30;;;12.80;99.90;;;;;;5014073;28;20030;-55
2023/03/24 03:13:53;;;;;;;8.77;6.65;;;12.80;99.90;;;;;;5015178;28;20032;-53
2023/03/24 03:16:52;;;;;;;9.52;6.80;;;12.80;99.90;;;;;;5012926;28;20128;-55
2023/03/24 03:19:42;;;;;;;7.85;6.15;;;12.80;99.90;;;;;;5014952;28;20068;-53
2023/03/24 03:22:36;;;;;;;8.27;5.97;;;12.90;99.90;;;;;;5015265;28;20030;-52
2023/03/24 03:25:27;;;;;;;7.18;6.38;;;12.90;99.90;;;;;;5013863;28;20029;-56
2023/03/24 03:28:20;;;;;;;10.50;6.00;;;12.90;99.90;;;;;;5012781;28;20034;-52
2023/03/24 03:31:14;;;;;;;6.53;5.72;;;12.90;99.90;;;;;;5013569;28;20438;-57
2023/03/24 03:34:28;;;;;;;8.15;6.00;;;12.90;99.90;;;;;;5012525;28;20388;-53
2023/03/24 03:37:42;;;;;;;6.20;5.60;;;12.90;99.90;;;;;;5012399;28;20092;-50
2023/03/24 03:40:37;;;;;;;8.73;5.68;;;12.90;99.90;;;;;;4979737;28;20040;-55
2023/03/24 03:43:25;;;;;;;7.05;5.75;;;12.90;99.90;;;;;;4997456;28;20026;-58
2023/03/24 03:46:12;;;;;;;6.43;5.55;;;12.90;99.90;;;;;;5011891;28;20042;-55
2023/03/24 03:48:58;;;;;;;6.75;5.65;;;12.90;99.90;;;;;;5011919;28;20117;-57
2023/03/24 03:51:44;;;;;;;6.35;5.75;;;13.00;99.90;;;;;;5000292;28;20034;-56
2023/03/24 03:54:31;;;;;;;7.80;5.78;;;13.00;99.90;;;;;;5013691;28;20045;-56
2023/03/24 03:57:19;;;;;;;6.85;6.05;;;13.00;99.90;;;;;;5012730;28;20081;-58
2023/03/24 04:00:10;;;;;;;11.13;7.72;;;13.00;99.90;;;;;;5011830;28;20496;-53
2023/03/24 04:03:34;;;;;;;9.60;6.03;;;13.00;99.90;;;;;;5011583;28;20052;-54
2023/03/24 04:06:43;;;;;;;6.68;5.78;;;13.00;99.90;;;;;;4992798;28;20491;-56
2023/03/24 04:09:44;;;;;;;6.15;5.55;;;13.00;99.90;;;;;;5004194;28;20026;-54
2023/03/24 04:12:42;;;;;;;9.90;5.93;;;13.10;99.90;;;;;;5012624;28;20026;-58
2023/03/24 04:15:34;;;;;;;7.75;6.18;;;13.10;99.90;;;;;;5012283;28;20037;-52
2023/03/24 04:18:57;;;;;;;10.07;7.63;;;13.10;99.90;;;;;;5013008;28;20466;-55
2023/03/24 04:22:13;;;;;;;10.02;9.02;;;13.20;99.90;;;;;;4998369;28;20014;-53
2023/03/24 04:25:27;;;;;;;9.50;8.50;;;13.20;99.90;;;;;;4978771;28;20029;-52
2023/03/24 04:28:26;;;;;;;9.95;8.93;;;13.20;99.90;;;;;;4997186;28;20409;-55
2023/03/24 04:31:48;;;;;;;9.65;8.65;;;13.20;99.90;;;;;;5011693;28;20033;-56
2023/03/24 04:34:49;;;;;;;8.95;8.05;;;13.30;99.90;;;;;;5011349;28;20032;-55
2023/03/24 04:37:36;;;;;;;14.13;12.27;;;13.30;99.90;;;;;;5012936;28;20049;-54
2023/03/24 04:40:23;;;;;;;11.38;9.65;;;13.30;99.90;;;;;;4993038;28;20088;-55
2023/03/24 04:43:15;;;;;;;7.82;6.57;;;13.30;99.90;;;;;;4996414;28;20061;-54
2023/03/24 04:46:03;;;;;;;6.68;5.90;;;13.40;99.90;;;;;;5011358;28;20044;-54
2023/03/24 04:48:49;;;;;;;6.68;5.88;;;13.40;99.90;;;;;;5011115;28;20037;-56
2023/03/24 04:51:36;;;;;;;6.90;5.43;;;13.40;99.90;;;;;;5011902;28;20048;-55
2023/03/24 04:54:22;;;;;;;6.20;5.22;;;13.40;99.90;;;;;;5010771;28;20112;-54
2023/03/24 04:57:08;;;;;;;8.68;5.35;;;13.50;99.90;;;;;;5012066;28;20030;-55
2023/03/24 04:59:54;;;;;;;9.88;7.95;;;13.40;99.90;;;;;;5011029;28;20463;-55
2023/03/24 05:02:40;;;;;;;6.65;5.70;;;13.40;99.90;;;;;;4997056;28;20048;-52
2023/03/24 05:05:27;;;;;;;8.82;5.40;;;13.40;99.90;;;;;;4992251;28;20523;-51
2023/03/24 05:08:15;;;;;;;6.47;4.85;;;13.40;99.90;;;;;;4993983;28;20049;-53
2023/03/24 05:11:01;;;;;;;7.57;5.55;;;13.40;99.90;;;;;;5011942;28;20101;-55
2023/03/24 05:13:47;;;;;;;7.78;5.18;;;13.40;99.90;;;;;;5011792;28;20060;-54
2023/03/24 05:16:33;;;;;;;6.10;5.15;;;13.30;99.90;;;;;;5010600;28;20080;-55
2023/03/24 05:19:19;;;;;;;5.93;5.15;;;13.30;99.90;;;;;;4996420;28;20030;-52
2023/03/24 05:22:05;;;;;;;6.63;5.70;;;13.30;99.90;;;;;;5012672;28;20030;-55
2023/03/24 05:24:51;;;;;;;7.45;5.60;;;13.20;99.90;;;;;;5010103;28;20034;-55
2023/03/24 05:27:37;;;;;;;6.78;5.82;;;13.30;99.90;;;;;;5010907;28;20022;-52
2023/03/24 05:30:23;;;;;;;7.20;5.28;;;13.30;99.90;;;;;;4997097;28;20088;-56
2023/03/24 05:33:09;;;;;;;6.60;5.20;;;13.20;99.90;;;;;;5011109;28;20030;-56
2023/03/24 05:35:55;;;;;;;7.63;5.50;;;13.30;99.90;;;;;;5010228;28;20109;-57
2023/03/24 05:38:41;;;;;;;6.63;5.47;;;13.30;99.90;;;;;;5011030;28;20030;-55
2023/03/24 05:41:27;;;;;;;6.53;5.38;;;13.30;99.90;;;;;;5010974;28;20079;-54
2023/03/24 05:44:13;;;;;;;8.57;6.57;;;13.40;99.90;;;;;;4995076;28;20026;-53
2023/03/24 05:46:59;;;;;;;7.10;5.50;;;13.40;99.90;;;;;;5011032;28;20049;-52
2023/03/24 05:49:45;;;;;;;7.10;5.40;;;13.40;99.90;;;;;;5010282;28;20080;-55
2023/03/24 05:52:32;;;;;;;7.65;5.45;;;13.40;99.90;;;;;;4998252;28;20034;-57
2023/03/24 05:55:18;;;;;;;6.50;5.40;;;13.50;99.90;;;;;;4987553;28;20052;-52
2023/03/24 05:58:04;;;;;;;7.93;5.55;;;13.40;99.90;;;;;;5008912;28;20038;-56
2023/03/24 06:00:50;;;;;;;6.97;5.45;;;13.40;99.90;;;;;;5011110;28;20073;-53
2023/03/24 06:03:39;;;;;;;6.68;5.65;;;13.40;99.90;;;;;;5007296;28;20034;-53
2023/03/24 06:06:25;;;;;;;7.10;5.93;;;13.40;99.90;;;;;;5021010;28;20104;-50
2023/03/24 06:09:13;;;;;;;8.65;5.22;;;13.40;99.90;;;;;;5019194;28;20034;-50
2023/03/24 06:12:00;;;;;;;6.38;5.35;;;13.50;99.90;;;;;;5011235;28;20042;-53
2023/03/24 06:14:46;;;;;;;7.60;5.43;;;13.50;99.90;;;;;;5011952;28;20382;-53
2023/03/24 06:17:32;;;;;;;7.78;5.30;;;13.50;99.90;;;;;;4996736;28;20033;-55
2023/03/24 06:20:18;;;;;;;7.57;5.65;;;13.50;99.90;;;;;;4984033;28;20105;-47
2023/03/24 06:23:04;;;;;;;8.23;6.65;;;13.60;99.90;;;;;;4993947;28;20033;-50
2023/03/24 06:25:52;;;;;;;8.55;5.20;;;13.60;99.90;;;;;;5010671;28;20026;-51
2023/03/24 06:28:38;;;;;;;8.68;5.78;;;13.60;99.90;;;;;;4995656;28;20038;-47
2023/03/24 06:31:26;;;;;;;7.03;5.43;;;13.70;99.90;;;;;;5011180;28;20041;-52
2023/03/24 06:34:12;;;;;;;6.97;5.88;;;13.70;99.90;;;;;;5012800;28;20053;-46
2023/03/24 06:36:58;;;;;;;9.70;6.78;;;13.80;99.90;;;;;;5009733;28;20536;-48
2023/03/24 06:39:44;;;;;;;8.32;6.40;;;13.80;99.90;;;;;;5010257;28;20038;-52
2023/03/24 06:42:30;;;;;;;8.27;5.97;;;13.80;99.90;;;;;;5010159;28;20376;-52
2023/03/24 06:45:16;;;;;;;8.38;5.60;;;13.80;99.90;;;;;;4991550;28;20504;-50
2023/03/24 06:48:02;;;;;;;6.32;5.50;;;13.80;99.90;;;;;;5018041;28;20041;-51
2023/03/24 06:50:48;;;;;;;7.35;5.90;;;13.80;99.90;;;;;;4994060;28;20025;-50
2023/03/24 06:53:40;;;;;;;6.57;5.45;;;13.80;99.90;;;;;;5004606;28;20026;-50
2023/03/24 06:56:26;;;;;;;10.15;6.93;;;13.80;99.90;;;;;;5024409;28;20034;-49
2023/03/24 06:59:12;;;;;;;7.13;5.90;;;13.90;99.90;;;;;;5019776;28;20502;-51
2023/03/24 07:01:58;;;;;;;7.55;6.15;;;14.00;99.90;;;;;;5018788;28;20036;-56
2023/03/24 07:04:44;;;;;;;10.27;6.80;;;13.90;99.90;;;;;;5026860;28;20057;-52
2023/03/24 07:07:31;;;;;;;6.20;5.60;;;14.00;99.90;;;;;;5021055;28;20025;-50
2023/03/24 07:10:18;;;;;;;7.13;5.68;;;14.10;99.90;;;;;;5031504;28;20051;-50
2023/03/24 07:13:05;;;;;;;6.25;5.22;;;14.00;99.90;;;;;;5026969;28;20087;-51
2023/03/24 07:15:51;;;;;;;6.05;5.07;;;14.10;99.90;;;;;;4994027;28;20073;-49
2023/03/24 07:18:37;;;;;;;6.43;5.53;;;14.00;99.90;;;;;;5005247;28;20127;-50
2023/03/24 07:21:23;;;;;;;7.90;5.70;;;14.10;99.90;;;;;;5013988;28;20491;-52
2023/03/24 07:24:09;;;;;;;6.65;5.68;;;14.10;99.90;;;;;;4999761;28;20392;-48
2023/03/24 07:26:55;;;;;;;7.38;5.57;;;14.10;99.90;;;;;;5013042;28;20033;-52
2023/03/24 07:29:41;;;;;;;7.55;5.40;;;14.20;99.90;;;;;;5013430;28;20049;-55
2023/03/24 07:32:29;;;;;;;9.60;5.88;;;14.20;99.90;;;;;;5014383;28;20109;-49
2023/03/24 07:35:16;;;;;;;6.22;5.07;;;14.30;99.90;;;;;;5022760;28;20026;-55
2023/03/24 07:38:02;;;;;;;9.55;5.30;;;14.30;99.90;;;;;;5027912;28;20029;-49
2023/03/24 07:40:48;;;;;;;6.07;4.72;;;14.40;99.90;;;;;;5017957;28;20049;-58
2023/03/24 07:43:34;;;;;;;5.85;4.25;;;14.40;99.90;;;;;;5017118;28;20022;-57
2023/03/24 07:46:20;;;;;;;5.00;4.50;;;14.40;99.90;;;;;;5013518;28;20432;-57
2023/03/24 07:49:06;;;;;;;6.68;5.05;;;14.50;99.90;;;;;;4997090;28;20030;-55
2023/03/24 07:51:52;;;;;;;6.13;4.90;;;14.50;99.90;;;;;;5008873;28;20034;-56
2023/03/24 07:54:38;;;;;;;5.60;4.85;;;14.50;99.90;;;;;;4996323;28;20030;-55
2023/03/24 07:57:24;;;;;;;5.72;4.97;;;14.60;99.90;;;;;;4996434;28;20022;-50
2023/03/24 08:00:14;;;;;;;5.53;5.03;;;14.50;99.90;;;;;;5011717;28;20145;-51
2023/03/24 08:03:00;;;;;;;5.55;4.78;;;14.60;99.90;;;;;;5012425;28;20502;-51
2023/03/24 08:05:47;;;;;;;4.70;4.22;;;14.60;99.90;;;;;;5012157;28;20061;-49
2023/03/24 08:08:33;;;;;;;5.30;4.80;;;14.60;99.90;;;;;;5008973;28;20030;-49
2023/03/24 08:11:19;;;;;;;5.38;4.22;;;14.60;99.90;;;;;;5011807;28;20402;-51
2023/03/24 08:14:06;;;;;;;5.88;3.95;;;14.70;99.90;;;;;;5011764;28;20037;-52
2023/03/24 08:16:52;;;;;;;5.72;3.85;;;14.60;99.90;;;;;;5014284;28;20053;-53
2023/03/24 08:19:38;;;;;;;6.15;3.75;;;14.70;99.90;;;;;;5011147;28;20040;-52
2023/03/24 08:22:23;;;;;;;6.00;4.28;;;14.70;99.90;;;;;;5011617;28;20058;-49
2023/03/24 08:25:11;;;;;;;5.95;4.05;;;14.70;99.90;;;;;;5013225;28;20490;-56
2023/03/24 08:27:57;;;;;;;4.18;3.78;;;14.80;99.90;;;;;;5013453;28;20032;-52
2023/03/24 08:30:43;;;;;;;5.05;3.60;;;14.90;99.90;;;;;;5022203;28;20084;-55
2023/03/24 08:33:29;;;;;;;4.72;3.95;;;14.80;99.90;;;;;;5007298;28;20050;-55
2023/03/24 08:36:15;;;;;;;6.15;4.03;;;14.80;99.90;;;;;;5001288;28;20033;-53
2023/03/24 08:39:01;;;;;;;4.00;3.38;;;14.90;99.90;;;;;;5009239;28;20030;-53
2023/03/24 08:41:48;;;;;;;5.22;3.40;;;15.00;99.90;;;;;;5003800;28;20084;-52
2023/03/24 08:44:35;;;;;;;3.85;3.33;;;15.10;99.90;;;;;;5019338;28;20018;-50
2023/03/24 08:47:21;;;;;;;4.97;3.80;;;15.20;99.90;;;;;;4993527;28;20027;-54
2023/03/24 08:50:08;;;;;;;3.95;3.55;;;15.20;99.90;;;;;;5008329;28;20038;-52
2023/03/24 08:52:56;;;;;;;5.45;3.47;;;15.30;99.90;;;;;;5007462;28;20160;-58
2023/03/24 08:55:43;;;;;;;3.60;3.25;;;15.40;99.90;;;;;;5011737;28;20092;-58
2023/03/24 08:58:29;;;;;;;4.97;3.50;;;15.40;99.90;;;;;;5012386;28;20494;-56
2023/03/24 09:01:16;;;;;;;3.60;3.30;;;15.50;99.90;;;;;;5010939;28;20068;-57
2023/03/24 09:04:02;;;;;;;5.25;3.40;;;15.70;99.90;;;;;;4994454;28;20069;-58
2023/03/24 09:06:48;;;;;;;3.80;3.40;;;15.70;99.90;;;;;;5009146;28;20029;-58
2023/03/24 09:09:34;;;;;;;4.38;3.40;;;15.80;99.90;;;;;;5011572;28;20038;-59
2023/03/24 09:12:20;;;;;;;4.35;3.90;;;15.90;99.90;;;;;;5002755;28;20034;-60
2023/03/24 09:15:08;;;;;;;4.65;3.75;;;15.90;99.90;;;;;;4982370;28;20085;-59
2023/03/24 09:17:54;;;;;;;3.90;3.05;;;16.00;99.90;;;;;;5011945;28;20029;-57
2023/03/24 09:20:39;;;;;;;3.88;3.17;;;16.00;99.90;;;;;;5012159;28;20115;-59
2023/03/24 09:23:28;;;;;;;4.47;3.47;;;16.10;99.90;;;;;;5012387;28;20022;-60
2023/03/24 09:26:13;;;;;;;5.38;3.50;;;15.80;99.90;;;;;;5011677;28;20022;-59
2023/03/24 09:28:59;;;;;;;4.22;3.25;;;15.70;99.90;;;;;;4997794;28;20117;-60
2023/03/24 09:31:45;;;;;;;4.32;3.20;;;15.80;99.90;;;;;;4991919;28;20515;-58
2023/03/24 09:34:32;;;;;;;3.90;3.17;;;15.80;99.90;;;;;;4991712;28;20034;-59
2023/03/24 09:37:18;;;;;;;4.15;3.40;;;15.80;99.90;;;;;;4990214;28;20399;-58
2023/03/24 09:40:06;;;;;;;4.18;3.30;;;15.80;99.90;;;;;;5008191;28;20041;-58
2023/03/24 09:43:08;;;;;;;3.97;3.38;;;15.80;99.90;;;;;;4977887;28;20626;-59
2023/03/24 09:45:57;;;;;;;3.40;3.10;;;15.80;99.90;;;;;;5007747;28;20034;-58
2023/03/24 09:48:56;;;;;;;4.35;3.25;;;15.80;99.90;;;;;;5009373;28;20058;-58
2023/03/24 09:51:44;;;;;;;4.25;3.33;;;15.80;99.90;;;;;;4995398;28;20038;-53
2023/03/24 09:54:53;;;;;;;3.72;3.33;;;15.80;99.90;;;;;;4993229;28;20033;-58
2023/03/24 09:57:41;;;;;;;4.43;2.95;;;15.90;99.90;;;;;;5000955;28;20680;-59
2023/03/24 10:00:31;;;;;;;5.28;3.40;;;15.80;99.90;;;;;;5008454;28;20069;-58
2023/03/24 10:03:20;;;;;;;4.32;3.55;;;15.90;99.90;;;;;;5009978;28;20029;-57
2023/03/24 10:06:26;;;;;;;4.07;3.22;;;15.90;99.90;;;;;;5009747;28;20093;-59
2023/03/24 10:09:24;;;;;;;4.13;3.50;;;15.80;99.90;;;;;;5006828;28;20041;-60
2023/03/24 10:12:32;;;;;;;3.45;2.85;;;15.80;99.90;;;;;;5002104;28;20030;-61
2023/03/24 10:15:30;;;;;;;3.95;3.05;;;15.60;99.90;;;;;;5005762;28;20451;-57
2023/03/24 10:18:35;;;;;;;4.43;2.90;;;14.80;99.90;;;;;;5010720;28;20030;-56
2023/03/24 10:21:25;;;;;;;4.43;2.47;;;14.30;99.90;;;;;;4996759;28;20101;-59
2023/03/24 10:24:34;;;;;;;3.85;2.28;;;14.30;99.90;;;;;;4992398;28;20025;-58
2023/03/24 10:27:29;;;;;;;2.95;2.20;;;13.90;99.90;;;;;;5010194;28;20041;-56
2023/03/24 10:30:21;;;;;;;4.80;2.53;;;13.70;99.90;;;;;;5011685;28;20026;-55
2023/03/24 10:33:10;;;;;;;2.65;2.40;;;13.80;99.90;;;;;;4996952;28;20057;-58
2023/03/24 10:36:18;;;;;;;2.75;2.30;;;13.70;99.90;;;;;;5013079;28;20026;-55
2023/03/24 10:39:05;;;;;;;6.35;2.72;;;13.70;99.90;;;;;;5003082;28;20034;-57
2023/03/24 10:41:53;;;;;;;4.30;2.40;;;13.70;99.90;;;;;;5011920;28;20030;-58
2023/03/24 10:44:39;;;;;;;3.25;2.40;;;13.80;99.90;;;;;;5012438;28;20018;-58
2023/03/24 10:47:27;;;;;;;3.00;2.40;;;13.80;99.90;;;;;;5002122;28;20057;-59
2023/03/24 10:50:14;;;;;;;3.92;2.67;;;13.60;99.90;;;;;;5004675;28;20030;-58
2023/03/24 10:53:06;;;;;;;3.22;2.38;;;13.70;99.90;;;;;;5013790;28;20030;-58
2023/03/24 10:55:52;;;;;;;3.00;2.40;;;13.60;99.90;;;;;;5013769;28;20054;-60
2023/03/24 10:58:40;;;;;;;4.07;2.85;;;13.80;99.90;;;;;;5012741;28;20037;-58
2023/03/24 11:01:31;;;;;;;3.50;2.47;;;13.80;99.90;;;;;;5012097;28;20034;-59
2023/03/24 11:04:19;;;;;;;3.22;2.35;;;13.80;99.90;;;;;;5012523;28;20033;-58
2023/03/24 11:07:15;;;;;;;4.05;2.80;;;13.80;99.90;;;;;;4987408;28;20077;-56
2023/03/24 11:10:10;;;;;;;3.08;2.40;;;13.80;99.90;;;;;;5011792;28;20063;-56
2023/03/24 11:12:56;;;;;;;5.55;2.47;;;13.80;99.90;;;;;;5007827;28;20101;-58
2023/03/24 11:16:12;;;;;;;3.15;2.60;;;13.70;99.90;;;;;;5002826;28;20053;-58
2023/03/24 11:19:05;;;;;;;;;;;13.80;99.90;;;;;;5009347;28;20081;-58
2023/03/24 11:22:00;;;;;;;4.43;2.70;;;13.80;99.90;;;;;;5001684;28;19916;-56
2023/03/24 11:24:53;;;;;;;4.80;2.97;;;13.80;99.90;;;;;;5012233;28;20057;-57
2023/03/24 11:27:43;;;;;;;5.80;2.88;;;13.90;99.90;;;;;;4996370;28;20027;-59
2023/03/24 11:30:34;;;;;;;6.07;2.53;;;14.10;99.90;;;;;;5002611;28;20041;-59
2023/03/24 11:33:27;;;;;;;4.45;2.70;;;14.20;99.90;;;;;;5011656;28;20533;-59
2023/03/24 11:36:37;;;;;;;5.38;2.70;;;14.10;99.90;;;;;;5010872;28;20121;-58
2023/03/24 11:39:30;;;;;;;3.97;2.33;;;14.20;99.90;;;;;;5012964;28;20052;-55
2023/03/24 11:42:17;;;;;;;3.65;2.90;;;14.10;99.90;;;;;;5011251;28;20018;-57
2023/03/24 11:45:22;;;;;;;3.80;2.78;;;14.10;99.90;;;;;;5012811;28;20038;-57
2023/03/24 11:48:49;;;;;;;3.13;2.55;;;14.10;99.90;;;;;;4998339;28;20101;-57
2023/03/24 11:51:40;;;;;;;3.28;2.42;;;14.10;99.90;;;;;;5012043;28;20573;-57
2023/03/24 11:54:35;;;;;;;3.55;2.53;;;14.00;99.90;;;;;;5011572;28;20030;-57
2023/03/24 11:57:54;;;;;;;5.30;3.47;;;14.00;99.90;;;;;;4993456;28;20030;-57
2023/03/24 12:00:50;;;;;;;4.20;3.15;;;14.00;99.90;;;;;;5006341;28;20407;-56
2023/03/24 12:04:14;;;;;;;4.20;2.90;;;13.90;99.90;;;;;;5011131;28;20022;-58
2023/03/24 12:07:31;;;;;;;6.35;3.25;;;13.90;99.90;;;;;;4999109;28;20080;-54
2023/03/24 12:10:48;;;;;;;3.85;2.75;;;13.80;99.90;;;;;;5010572;28;20117;-59
2023/03/24 12:13:37;;;;;;;3.90;3.30;;;13.90;99.90;;;;;;4978560;28;20019;-54
2023/03/24 12:16:39;;;;;;;4.00;3.00;;;13.90;99.90;;;;;;5002723;28;20040;-54
2023/03/24 12:20:07;;;;;;;5.07;3.60;;;13.90;99.90;;;;;;5002544;28;20030;-53
2023/03/24 12:23:03;;;;;;;5.82;3.10;;;13.80;99.90;;;;;;4992351;28;20036;-57
2023/03/24 12:26:13;;;;;;;7.85;3.15;;;13.90;99.90;;;;;;5015912;28;20018;-53
2023/03/24 12:29:23;;;;;;;3.75;3.05;;;13.90;99.90;;;;;;5004883;28;20094;-53
2023/03/24 12:32:35;;;;;;;3.70;3.13;;;14.00;99.90;;;;;;5001827;28;20034;-53
2023/03/24 12:35:27;;;;;;;3.55;2.72;;;14.00;99.90;;;;;;5012116;28;20052;-49
2023/03/24 12:38:32;;;;;;;3.55;2.60;;;14.00;99.90;;;;;;5010584;28;20112;-52
2023/03/24 12:41:33;;;;;;;4.57;2.90;;;14.00;99.90;;;;;;5011193;28;20521;-55
2023/03/24 12:44:28;;;;;;;4.50;2.88;;;14.00;99.90;;;;;;5011356;28;20052;-52
2023/03/24 12:47:37;;;;;;;4.25;2.38;;;13.70;99.90;;;;;;5011205;28;20391;-58
2023/03/24 12:50:49;;;;;;;4.00;2.38;;;13.60;99.90;;;;;;5011182;28;20029;-50
2023/03/24 12:53:58;;;;;;;5.20;2.90;;;13.60;99.90;;;;;;5009738;28;20025;-55
2023/03/24 12:56:50;;;;;;;4.15;2.60;;;13.50;99.90;;;;;;5010567;28;20560;-52
2023/03/24 12:59:45;;;;;;;4.88;2.80;;;13.70;99.90;;;;;;5009524;28;20402;-53
2023/03/24 13:02:34;;;;;;;4.78;2.33;;;13.70;99.90;;;;;;5010287;28;20521;-57
2023/03/24 13:05:30;;;;;;;3.75;2.42;;;13.80;99.70;;;;;;5010177;28;20034;-53
2023/03/24 13:08:31;;;;;;;3.17;2.13;;;13.90;98.80;;;;;;5012395;28;20026;-54
2023/03/24 13:11:20;;;;;;;4.82;2.00;;;14.00;97.40;;;;;;5020595;28;20406;-51
2023/03/24 13:14:14;;;;;;;3.50;2.58;;;13.90;96.80;;;;;;5011372;28;20109;-51
2023/03/24 13:17:06;;;;;;;2.80;2.30;;;14.10;96.70;;;;;;4995548;28;20037;-53
2023/03/24 13:19:54;;;;;;;4.43;2.25;;;14.10;96.80;;;;;;5010877;28;20025;-54
2023/03/24 13:22:41;;;;;;;2.70;2.15;;;14.10;97.20;;;;;;5011391;28;20080;-50
2023/03/24 13:25:44;;;;;;;3.25;2.25;;;14.10;98.10;;;;;;4998171;28;20112;-56
2023/03/24 13:28:39;;;;;;;4.47;2.40;;;14.00;97.80;;;;;;4990546;28;20454;-50
2023/03/24 13:31:29;;;;;;;4.38;2.70;;;13.90;98.20;;;;;;4993338;28;20022;-58
2023/03/24 13:34:37;;;;;;;5.03;2.40;;;13.90;98.40;;;;;;5011942;28;20025;-54
2023/03/24 13:37:37;;;;;;;6.35;2.63;;;13.90;98.40;;;;;;5010990;28;20037;-53
2023/03/24 13:40:26;;;;;;;3.40;2.60;;;14.00;98.50;;;;;;5011312;28;20092;-55
2023/03/24 13:43:22;;;;;;;3.75;2.38;;;14.20;98.60;;;;;;5014487;28;20052;-50
2023/03/24 13:46:12;;;;;;;2.55;2.20;;;14.20;97.70;;;;;;5012810;28;20014;-50
2023/03/24 13:48:59;;;;;;;4.20;2.50;;;14.20;98.00;;;;;;5004399;28;20117;-55
2023/03/24 13:51:45;;;;;;;3.83;2.25;;;14.20;97.80;;;;;;4992230;28;20022;-54
2023/03/24 13:54:36;;;;;;;4.90;2.72;;;14.50;97.60;;;;;;5020610;28;20037;-58
2023/03/24 13:57:22;;;;;;;3.00;2.47;;;14.50;98.10;;;;;;5015329;28;20026;-54
2023/03/24 14:00:21;;;;;;;3.65;2.40;;;14.60;97.80;;;;;;5012685;28;20076;-53
2023/03/24 14:03:29;;;;;;;4.50;2.30;;;14.40;97.60;;;;;;4995866;28;20037;-52
2023/03/24 14:06:16;;;;;;;5.50;2.70;;;14.40;97.30;;;;;;4998781;28;20022;-53
2023/03/24 14:09:20;;;;;;;3.42;2.42;;;14.40;97.50;;;;;;5014402;28;20025;-49
2023/03/24 14:12:14;;;;;;;4.90;2.55;;;14.40;97.70;;;;;;5013813;28;20030;-56
2023/03/24 14:15:12;;;;;;;4.93;3.10;;;14.40;97.70;;;;;;5014116;28;20021;-55
2023/03/24 14:18:23;;;;;;;4.10;3.00;;;14.30;97.40;;;;;;5013643;28;20116;-50
2023/03/24 14:21:10;;;;;;;3.30;2.58;;;14.30;96.80;;;;;;5018356;28;20505;-57
2023/03/24 14:23:58;;;;;;;6.57;2.47;;;14.30;96.80;;;;;;5006502;28;20539;-52
2023/03/24 14:26:45;;;;;;;4.57;2.67;;;14.30;96.70;;;;;;5004544;28;20026;-56
2023/03/24 14:29:40;;;;;;;5.38;2.78;;;14.20;96.80;;;;;;5018884;28;20026;-58
2023/03/24 14:32:26;;;;;;;5.57;2.30;;;14.20;97.20;;;;;;5017824;28;20024;-51
2023/03/24 14:35:38;;;;;;;4.57;2.58;;;14.40;97.00;;;;;;5019141;28;20467;-54
2023/03/24 14:38:25;;;;;;;4.00;2.42;;;14.40;96.80;;;;;;4994249;28;20069;-51
2023/03/24 14:41:15;;;;;;;3.15;2.40;;;14.60;96.70;;;;;;5000871;28;20052;-54
2023/03/24 14:44:01;;;;;;;4.55;2.55;;;14.90;95.90;;;;;;5013218;28;20034;-48
2023/03/24 14:46:49;;;;;;;4.95;2.60;;;15.20;95.40;;;;;;5014043;28;20034;-52
2023/03/24 14:49:35;;;;;;;4.32;2.72;;;15.40;95.10;;;;;;5012670;28;20045;-54
2023/03/24 14:52:30;;;;;;;5.10;2.58;;;15.70;94.60;;;;;;5013741;28;20037;-55
2023/03/24 14:55:18;;;;;;;3.97;2.38;;;15.70;94.80;;;;;;5014612;28;20030;-51